createdAt,value
2023-03-17T00:01:17.322Z,96503.91
2023-03-17T00:03:46.566Z,96498.06
2023-03-17T00:06:17.064Z,96490.91
2023-03-17T00:08:46.281Z,96501.59
2023-03-17T00:11:16.016Z,96495.75
2023-03-17T00:13:44.585Z,96488.94
2023-03-17T00:16:18.051Z,96487.47
2023-03-17T00:18:45.830Z,96487.91
2023-03-17T00:21:15.572Z,96488.91
2023-03-17T00:23:46.960Z,96485.00
2023-03-17T00:26:15.282Z,96484.34
2023-03-17T00:28:43.270Z,96478.34
2023-03-17T00:31:15.165Z,96476.06
2023-03-17T00:33:45.485Z,96470.22
2023-03-17T00:36:17.973Z,96480.88
2023-03-17T00:38:46.181Z,96471.66
2023-03-17T00:41:14.152Z,96476.97
2023-03-17T00:43:42.841Z,96471.16
2023-03-17T00:46:14.714Z,96469.69
2023-03-17T00:48:44.774Z,96464.66
2023-03-17T00:51:12.503Z,96454.78
2023-03-17T00:53:40.517Z,96455.56
2023-03-17T00:56:14.374Z,96448.94
2023-03-17T00:58:42.200Z,96439.38
2023-03-17T01:01:10.732Z,96437.78
2023-03-17T01:03:38.977Z,96434.38
2023-03-17T01:06:11.189Z,96431.28
2023-03-17T01:08:39.669Z,96429.81
2023-03-17T01:11:08.591Z,96431.09
2023-03-17T01:13:36.639Z,96423.47
2023-03-17T01:16:04.379Z,96418.97
2023-03-17T01:18:32.780Z,96413.97
2023-03-17T01:21:00.366Z,96407.16
2023-03-17T01:23:29.323Z,96412.00
2023-03-17T01:25:57.346Z,96418.13
2023-03-17T01:28:25.403Z,96414.88
2023-03-17T01:30:52.925Z,96411.34
2023-03-17T01:33:20.678Z,96408.09
2023-03-17T01:35:48.277Z,96407.09
2023-03-17T01:38:16.363Z,96408.09
2023-03-17T01:40:47.983Z,96403.84
2023-03-17T01:43:20.837Z,96407.94
2023-03-17T01:46:16.032Z,96395.00
2023-03-17T01:48:46.540Z,96397.06
2023-03-17T01:51:18.894Z,96394.16
2023-03-17T01:53:48.867Z,96391.84
2023-03-17T01:56:18.062Z,96382.13
2023-03-17T01:58:48.251Z,96381.16
2023-03-17T02:01:15.848Z,96381.31
2023-03-17T02:03:43.814Z,96379.72
2023-03-17T02:06:12.200Z,96374.69
2023-03-17T02:08:39.716Z,96377.59
2023-03-17T02:11:08.660Z,96371.44
2023-03-17T02:13:38.476Z,96372.56
2023-03-17T02:16:07.018Z,96362.38
2023-03-17T02:18:34.925Z,96367.38
2023-03-17T02:21:38.148Z,96372.84
2023-03-17T02:24:10.838Z,96367.19
2023-03-17T02:26:39.022Z,96370.38
2023-03-17T02:29:06.753Z,96389.41
2023-03-17T02:31:34.891Z,96380.88
2023-03-17T02:34:02.801Z,96385.09
2023-03-17T02:36:30.623Z,96377.47
2023-03-17T02:38:59.510Z,96375.81
2023-03-17T02:41:27.329Z,96374.47
2023-03-17T02:43:54.939Z,96370.25
2023-03-17T02:46:22.607Z,96372.84
2023-03-17T02:48:50.900Z,96372.22
2023-03-17T02:51:18.424Z,96372.50
2023-03-17T02:53:46.001Z,96366.31
2023-03-17T02:56:15.052Z,96375.84
2023-03-17T02:58:42.601Z,96365.53
2023-03-17T03:01:10.709Z,96372.44
2023-03-17T03:03:38.517Z,96370.16
2023-03-17T03:06:06.789Z,96370.16
2023-03-17T03:08:34.519Z,96377.31
2023-03-17T03:11:02.590Z,96377.16
2023-03-17T03:13:31.616Z,96374.56
2023-03-17T03:15:59.174Z,96374.41
2023-03-17T03:18:27.075Z,96377.00
2023-03-17T03:20:54.786Z,96373.47
2023-03-17T03:23:22.351Z,96350.50
2023-03-17T03:25:49.986Z,96350.00
2023-03-17T03:28:17.618Z,96359.69
2023-03-17T03:30:46.884Z,96362.28
2023-03-17T03:33:18.764Z,96356.59
2023-03-17T03:35:46.483Z,96365.91
2023-03-17T03:38:14.333Z,96354.25
2023-03-17T03:40:42.300Z,96362.13
2023-03-17T03:43:22.079Z,96347.09
2023-03-17T03:45:54.470Z,96350.66
2023-03-17T03:48:23.011Z,96356.47
2023-03-17T03:50:50.546Z,96361.03
2023-03-17T03:53:18.040Z,96348.75
2023-03-17T03:55:45.692Z,96349.28
2023-03-17T03:58:13.278Z,96345.72
2023-03-17T04:00:40.891Z,96336.22
2023-03-17T04:03:09.819Z,96337.03
2023-03-17T04:05:37.399Z,96343.13
2023-03-17T04:08:05.179Z,96344.78
2023-03-17T04:10:32.928Z,96348.84
2023-03-17T04:13:00.697Z,96335.91
2023-03-17T04:15:28.436Z,96340.28
2023-03-17T04:17:56.068Z,96335.09
2023-03-17T04:20:24.991Z,96328.63
2023-03-17T04:22:52.546Z,96326.19
2023-03-17T04:25:20.400Z,96324.19
2023-03-17T04:27:47.959Z,96317.34
2023-03-17T04:30:16.896Z,96328.13
2023-03-17T04:32:46.333Z,96326.31
2023-03-17T04:35:15.938Z,96312.75
2023-03-17T04:37:45.534Z,96318.84
2023-03-17T04:40:14.429Z,96311.56
2023-03-17T04:42:42.197Z,96314.28
2023-03-17T04:45:12.440Z,96319.31
2023-03-17T04:47:39.971Z,96314.28
2023-03-17T04:50:08.900Z,96318.09
2023-03-17T04:52:37.037Z,96316.19
2023-03-17T04:55:08.251Z,96314.59
2023-03-17T04:57:36.065Z,96312.00
2023-03-17T05:00:04.548Z,96314.91
2023-03-17T05:02:32.205Z,96316.94
2023-03-17T05:04:59.900Z,96314.06
2023-03-17T05:07:27.406Z,96304.84
2023-03-17T05:09:54.931Z,96292.38
2023-03-17T05:12:23.858Z,96308.19
2023-03-17T05:14:51.442Z,96314.16
2023-03-17T05:17:18.970Z,96321.22
2023-03-17T05:19:46.894Z,96310.91
2023-03-17T05:22:14.442Z,96310.91
2023-03-17T05:24:42.078Z,96302.63
2023-03-17T05:27:09.880Z,96309.56
2023-03-17T05:29:39.278Z,96311.34
2023-03-17T05:32:07.542Z,96310.56
2023-03-17T05:34:35.056Z,96299.38
2023-03-17T05:37:03.344Z,96294.69
2023-03-17T05:39:30.880Z,96292.69
2023-03-17T05:41:58.508Z,96293.13
2023-03-17T05:44:26.197Z,96285.56
2023-03-17T05:46:55.900Z,96293.56
2023-03-17T05:49:24.463Z,96284.22
2023-03-17T05:51:52.001Z,96284.66
2023-03-17T05:54:19.592Z,96279.28
2023-03-17T05:56:47.108Z,96271.81
2023-03-17T05:59:16.783Z,96280.22
2023-03-17T06:01:44.345Z,96276.69
2023-03-17T06:04:13.379Z,96280.88
2023-03-17T06:06:41.253Z,96276.69
2023-03-17T06:09:09.384Z,96280.22
2023-03-17T06:11:36.897Z,96285.38
2023-03-17T06:14:04.577Z,96285.38
2023-03-17T06:16:33.179Z,96281.56
2023-03-17T06:19:01.223Z,96296.47
2023-03-17T06:21:30.313Z,96299.69
2023-03-17T06:23:57.928Z,96299.25
2023-03-17T06:26:25.438Z,96312.97
2023-03-17T06:28:52.985Z,96318.13
2023-03-17T06:31:20.792Z,96317.19
2023-03-17T06:33:48.671Z,96310.25
2023-03-17T06:36:16.896Z,96314.59
2023-03-17T06:38:46.050Z,96323.16
2023-03-17T06:41:13.720Z,96315.09
2023-03-17T06:43:41.247Z,96303.66
2023-03-17T06:46:08.876Z,96302.13
2023-03-17T06:48:36.450Z,96305.44
2023-03-17T06:51:04.134Z,96297.47
2023-03-17T06:53:31.662Z,96307.41
2023-03-17T06:56:00.605Z,96309.75
2023-03-17T06:58:28.156Z,96303.53
2023-03-17T07:40:30.876Z,96318.97
2023-03-17T07:42:59.505Z,96310.81
2023-03-17T07:45:27.815Z,96290.94
2023-03-17T07:47:55.634Z,96306.41
2023-03-17T07:50:23.216Z,96292.75
2023-03-17T07:52:50.848Z,96296.41
2023-03-17T07:55:18.445Z,96290.94
2023-03-17T07:57:47.339Z,96297.63
2023-03-17T08:00:17.224Z,96303.78
2023-03-17T08:02:46.882Z,96302.75
2023-03-17T08:05:15.755Z,96299.78
2023-03-17T08:07:43.362Z,96297.22
2023-03-17T08:10:13.259Z,96293.59
2023-03-17T08:12:41.686Z,96295.25
2023-03-17T08:15:12.178Z,96301.41
2023-03-17T08:17:40.117Z,96302.28
2023-03-17T08:20:09.672Z,96297.28
2023-03-17T08:22:37.281Z,96293.94
2023-03-17T08:25:05.163Z,96294.72
2023-03-17T08:27:33.969Z,96296.94
2023-03-17T08:30:02.158Z,96291.72
2023-03-17T08:32:31.136Z,96292.72
2023-03-17T08:34:58.744Z,96295.28
2023-03-17T08:37:26.664Z,96295.09
2023-03-17T08:39:54.319Z,96286.06
2023-03-17T08:42:22.330Z,96289.91
2023-03-17T08:44:49.948Z,96283.06
2023-03-17T08:47:17.557Z,96284.06
2023-03-17T08:49:46.475Z,96286.28
2023-03-17T08:52:14.829Z,96285.03
2023-03-17T08:54:42.406Z,96271.91
2023-03-17T08:57:09.985Z,96267.56
2023-03-17T08:59:37.736Z,96270.09
2023-03-17T09:02:05.707Z,96265.22
2023-03-17T09:04:33.943Z,96264.25
2023-03-17T09:07:04.339Z,96258.22
2023-03-17T09:09:32.263Z,96261.09
2023-03-17T09:11:59.977Z,96258.91
2023-03-17T09:14:27.671Z,96275.25
2023-03-17T09:16:55.435Z,96269.84
2023-03-17T09:19:23.798Z,96276.50
2023-03-17T09:21:51.849Z,96270.91
2023-03-17T09:24:21.680Z,96276.25
2023-03-17T09:26:49.267Z,96268.69
2023-03-17T09:29:16.865Z,96273.41
2023-03-17T09:31:44.432Z,96267.84
2023-03-17T09:34:12.133Z,96266.94
2023-03-17T09:36:39.896Z,96256.84
2023-03-17T09:39:07.445Z,96258.09
2023-03-17T09:41:57.071Z,96262.19
2023-03-17T09:44:38.571Z,96256.66
2023-03-17T09:47:23.939Z,96264.41
2023-03-17T09:49:54.473Z,96265.91
2023-03-17T09:52:27.888Z,96265.06
2023-03-17T09:54:56.000Z,96260.56
2023-03-17T09:57:28.062Z,96260.34
2023-03-17T10:00:06.351Z,96257.81
2023-03-17T10:02:37.466Z,96255.56
2023-03-17T10:05:14.875Z,96257.81
2023-03-17T10:07:49.515Z,96252.47
2023-03-17T10:10:25.190Z,96253.94
2023-03-17T10:13:06.748Z,96248.91
2023-03-17T10:15:38.803Z,96251.50
2023-03-17T10:18:11.334Z,96248.59
2023-03-17T10:20:49.248Z,96247.97
2023-03-17T10:23:21.682Z,96242.25
2023-03-17T10:25:49.377Z,96237.66
2023-03-17T10:28:29.709Z,96231.97
2023-03-17T10:31:03.035Z,96240.56
2023-03-17T10:33:32.725Z,96231.69
2023-03-17T10:36:09.490Z,96225.91
2023-03-17T10:38:37.612Z,96229.16
2023-03-17T10:41:10.261Z,96233.97
2023-03-17T10:43:44.880Z,96226.19
2023-03-17T10:46:21.538Z,96229.03
2023-03-17T10:48:54.178Z,96235.16
2023-03-17T10:51:30.609Z,96240.16
2023-03-17T10:54:01.295Z,96235.06
2023-03-17T10:56:34.769Z,96236.34
2023-03-17T10:59:08.897Z,96229.88
2023-03-17T11:01:40.138Z,96229.97
2023-03-17T11:04:27.336Z,96236.97
2023-03-17T11:06:57.365Z,96229.25
2023-03-17T11:09:26.242Z,96227.91
2023-03-17T11:12:02.945Z,96228.72
2023-03-17T11:14:32.028Z,96230.06
2023-03-17T11:17:02.587Z,96222.44
2023-03-17T11:19:42.017Z,96221.63
2023-03-17T11:22:14.994Z,96217.94
2023-03-17T11:24:55.469Z,96212.88
2023-03-17T11:27:30.968Z,96211.03
2023-03-17T11:30:15.176Z,96205.41
2023-03-17T11:32:46.772Z,96204.69
2023-03-17T11:35:34.172Z,96200.56
2023-03-17T11:38:15.830Z,96203.44
2023-03-17T11:40:57.886Z,96196.34
2023-03-17T11:43:34.328Z,96200.25
2023-03-17T11:46:10.678Z,96194.16
2023-03-17T11:48:49.609Z,96195.00
2023-03-17T11:51:27.586Z,96194.69
2023-03-17T11:54:09.497Z,96190.81
2023-03-17T11:56:42.804Z,96186.03
2023-03-17T11:59:21.596Z,96192.72
2023-03-17T12:01:59.570Z,96177.84
2023-03-17T12:04:34.343Z,96176.59
2023-03-17T12:07:09.050Z,96177.94
2023-03-17T12:09:40.879Z,96177.50
2023-03-17T12:12:11.858Z,96163.97
2023-03-17T12:14:44.191Z,96166.88
2023-03-17T12:17:19.656Z,96165.19
2023-03-17T12:20:06.779Z,96166.72
2023-03-17T12:22:40.772Z,96168.63
2023-03-17T12:25:17.981Z,96153.19
2023-03-17T12:27:51.825Z,96157.16
2023-03-17T12:30:29.144Z,96156.72
2023-03-17T12:33:04.675Z,96145.81
2023-03-17T12:35:34.960Z,96147.06
2023-03-17T12:38:10.565Z,96144.25
2023-03-17T12:40:51.302Z,96141.97
2023-03-17T12:43:37.617Z,96139.06
2023-03-17T12:46:18.679Z,96136.94
2023-03-17T12:49:14.907Z,96123.94
2023-03-17T12:52:15.410Z,96114.63
2023-03-17T12:54:47.826Z,96123.09
2023-03-17T12:57:19.019Z,96117.50
2023-03-17T12:59:50.258Z,96109.00
2023-03-17T13:02:31.986Z,96111.66
2023-03-17T13:05:02.014Z,96108.44
2023-03-17T13:07:35.900Z,96117.19
2023-03-17T13:10:36.249Z,96114.28
2023-03-17T13:13:23.227Z,96103.66
2023-03-17T13:16:01.188Z,96103.66
2023-03-17T13:18:47.855Z,96103.13
2023-03-17T13:21:20.490Z,96096.72
2023-03-17T13:23:54.275Z,96100.72
2023-03-17T13:26:44.628Z,96099.38
2023-03-17T13:29:27.160Z,96095.13
2023-03-17T13:32:14.460Z,96096.16
2023-03-17T13:34:46.536Z,96092.94
2023-03-17T13:37:23.770Z,96096.63
2023-03-17T13:40:11.029Z,96098.19
2023-03-17T13:43:05.126Z,96093.44
2023-03-17T13:45:38.558Z,96095.53
2023-03-17T13:48:28.701Z,96094.44
2023-03-17T13:51:00.876Z,96093.88
2023-03-17T13:53:31.694Z,96096.19
2023-03-17T13:56:12.102Z,96099.03
2023-03-17T13:58:53.900Z,96093.66
2023-03-17T14:01:24.174Z,96094.72
2023-03-17T14:03:54.060Z,96084.59
2023-03-17T14:06:26.792Z,96081.88
2023-03-17T14:08:58.280Z,96082.31
2023-03-17T14:11:29.754Z,96078.47
2023-03-17T14:14:31.225Z,96066.47
2023-03-17T14:17:08.147Z,96068.22
2023-03-17T14:19:39.016Z,96068.16
2023-03-17T14:22:20.833Z,96076.56
2023-03-17T14:24:53.035Z,96069.56
2023-03-17T14:27:22.348Z,96064.19
2023-03-17T14:29:49.920Z,96064.88
2023-03-17T14:32:21.496Z,96056.66
2023-03-17T14:34:55.565Z,96059.78
2023-03-17T14:37:24.035Z,96057.09
2023-03-17T14:39:54.712Z,96059.94
2023-03-17T14:42:28.570Z,96053.78
2023-03-17T14:45:03.739Z,96051.31
2023-03-17T14:47:39.656Z,96038.03
2023-03-17T14:50:16.948Z,96042.75
2023-03-17T14:52:45.403Z,96033.50
2023-03-17T14:55:14.689Z,96032.94
2023-03-17T14:57:42.723Z,96038.97
2023-03-17T15:00:31.797Z,96026.50
2023-03-17T15:03:03.374Z,96039.16
2023-03-17T15:05:41.036Z,96029.06
2023-03-17T15:08:42.625Z,96030.34
2023-03-17T15:11:18.482Z,96032.38
2023-03-17T15:13:46.171Z,96031.03
2023-03-17T15:16:21.412Z,96031.78
2023-03-17T15:18:56.160Z,96029.31
2023-03-17T15:21:28.178Z,96020.03
2023-03-17T15:23:55.720Z,96021.31
2023-03-17T15:26:31.012Z,96016.78
2023-03-17T15:29:00.411Z,96027.81
2023-03-17T15:31:30.093Z,96020.16
2023-03-17T15:33:59.793Z,96030.16
2023-03-17T15:36:32.648Z,96025.19
2023-03-17T15:39:01.077Z,96026.44
2023-03-17T15:41:28.698Z,96016.63
2023-03-17T15:43:56.761Z,96028.72
2023-03-17T15:46:27.616Z,96032.00
2023-03-17T15:48:55.353Z,96028.19
2023-03-17T15:51:24.186Z,96028.56
2023-03-17T15:53:51.801Z,96027.38
2023-03-17T15:56:21.751Z,96028.81
2023-03-17T15:58:52.168Z,96031.63
2023-03-17T16:01:20.631Z,96033.84
2023-03-17T16:03:49.464Z,96024.47
2023-03-17T16:06:18.764Z,96030.97
2023-03-17T16:08:47.672Z,96035.56
2023-03-17T16:11:19.041Z,96033.34
2023-03-17T16:13:47.868Z,96032.66
2023-03-17T16:16:22.625Z,96032.56
2023-03-17T16:18:52.568Z,96038.31
2023-03-17T16:21:20.736Z,96034.31
2023-03-17T16:23:50.289Z,96022.41
2023-03-17T16:26:17.961Z,96032.38
2023-03-17T16:28:47.625Z,96035.38
2023-03-17T16:31:24.998Z,96020.97
2023-03-17T16:33:55.509Z,96034.19
2023-03-17T16:36:25.687Z,96025.28
2023-03-17T16:38:54.842Z,96023.78
2023-03-17T16:41:24.283Z,96031.81
2023-03-17T16:43:55.277Z,96025.31
2023-03-17T16:46:23.484Z,96017.31
2023-03-17T16:48:51.930Z,96029.34
2023-03-17T16:51:20.117Z,96022.38
2023-03-17T16:53:48.130Z,96036.78
2023-03-17T16:56:19.795Z,96036.44
2023-03-17T16:58:47.909Z,96033.47
2023-03-17T17:01:17.789Z,96031.53
2023-03-17T17:03:46.030Z,96028.78
2023-03-17T17:06:15.327Z,96027.63
2023-03-17T17:08:43.968Z,96030.38
2023-03-17T17:11:13.440Z,96030.50
2023-03-17T17:13:43.427Z,96028.75
2023-03-17T17:16:20.037Z,96035.94
2023-03-17T17:18:47.683Z,96036.84
2023-03-17T17:21:15.231Z,96049.88
2023-03-17T17:23:42.900Z,96043.69
2023-03-17T17:26:10.770Z,96032.84
2023-03-17T17:28:39.972Z,96045.03
2023-03-17T17:31:09.838Z,96052.00
2023-03-17T17:33:38.491Z,96049.22
2023-03-17T17:36:12.403Z,96054.94
2023-03-17T17:38:40.048Z,96051.38
2023-03-17T17:41:08.923Z,96047.84
2023-03-17T17:43:36.715Z,96057.19
2023-03-17T17:46:04.437Z,96056.81
2023-03-17T17:48:33.269Z,96061.72
2023-03-17T17:51:00.936Z,96056.13
2023-03-17T17:53:28.477Z,96055.75
2023-03-17T17:55:57.599Z,96055.41
2023-03-17T17:58:26.906Z,96059.50
2023-03-17T18:00:56.846Z,96057.53
2023-03-17T18:03:25.315Z,96054.75
2023-03-17T18:05:55.184Z,96069.34
2023-03-17T18:08:23.639Z,96070.25
2023-03-17T18:10:52.225Z,96073.75
2023-03-17T18:13:19.990Z,96080.88
2023-03-17T18:15:47.795Z,96076.69
2023-03-17T18:18:15.469Z,96077.81
2023-03-17T18:20:43.070Z,96086.75
2023-03-17T18:23:12.165Z,96078.34
2023-03-17T18:25:39.783Z,96089.72
2023-03-17T18:28:08.017Z,96083.16
2023-03-17T18:30:35.848Z,96081.38
2023-03-17T18:33:07.423Z,96086.69
2023-03-17T18:35:35.548Z,96080.69
2023-03-17T18:38:03.251Z,96084.16
2023-03-17T18:40:32.404Z,96080.56
2023-03-17T18:43:00.008Z,96083.47
2023-03-17T18:45:27.651Z,96088.53
2023-03-17T18:47:55.189Z,96093.03
2023-03-17T18:50:23.393Z,96088.63
2023-03-17T18:52:51.218Z,96091.91
2023-03-17T18:55:19.099Z,96091.53
2023-03-17T18:57:48.284Z,96091.94
2023-03-17T19:00:18.536Z,96101.22
2023-03-17T19:02:46.876Z,96092.16
2023-03-17T19:05:15.249Z,96095.81
2023-03-17T19:07:43.068Z,96085.31
2023-03-17T19:10:12.025Z,96092.16
2023-03-17T19:12:39.745Z,96096.41
2023-03-17T19:15:10.623Z,96091.94
2023-03-17T19:17:38.490Z,96093.56
2023-03-17T19:20:07.205Z,96100.44
2023-03-17T19:22:35.280Z,96090.75
2023-03-17T19:25:04.350Z,96097.00
2023-03-17T19:27:32.060Z,96094.56
2023-03-17T19:29:59.633Z,96094.78
2023-03-17T19:32:28.570Z,96101.44
2023-03-17T19:34:56.147Z,96088.19
2023-03-17T19:37:23.706Z,96083.97
2023-03-17T19:39:51.196Z,96099.09
2023-03-17T19:42:18.961Z,96111.59
2023-03-17T19:44:46.479Z,96106.75
2023-03-17T19:47:13.979Z,96116.25
2023-03-17T19:49:42.879Z,96124.31
2023-03-17T19:52:10.995Z,96121.69
2023-03-17T19:54:43.522Z,96127.97
2023-03-17T20:05:12.671Z,96129.38
2023-03-17T20:07:44.116Z,96122.56
2023-03-17T20:10:13.422Z,96123.19
2023-03-17T20:12:42.588Z,96121.97
2023-03-17T20:15:12.565Z,96125.63
2023-03-17T20:17:41.194Z,96125.03
2023-03-17T20:20:12.210Z,96125.22
2023-03-17T20:22:41.414Z,96117.00
2023-03-17T20:25:10.449Z,96118.41
2023-03-17T20:27:38.693Z,96122.06
2023-03-17T20:30:08.797Z,96116.41
2023-03-17T20:32:36.740Z,96113.63
2023-03-17T20:35:06.842Z,96116.25
2023-03-17T20:37:37.535Z,96119.50
2023-03-17T20:40:08.578Z,96127.75
2023-03-17T20:42:37.478Z,96123.34
2023-03-17T20:45:07.547Z,96127.38
2023-03-17T20:47:35.731Z,96132.59
2023-03-17T20:50:04.734Z,96131.56
2023-03-17T20:52:32.794Z,96123.13
2023-03-17T20:55:02.570Z,96120.72
2023-03-17T20:57:30.582Z,96123.97
2023-03-17T20:59:58.280Z,96125.38
2023-03-17T21:02:26.656Z,96124.16
2023-03-17T21:04:54.469Z,96133.41
2023-03-17T21:07:23.434Z,96139.06
2023-03-17T21:09:52.072Z,96123.38
2023-03-17T21:12:21.519Z,96130.59
2023-03-17T21:14:49.334Z,96130.97
2023-03-17T21:17:18.102Z,96132.38
2023-03-17T21:19:46.401Z,96144.84
2023-03-17T21:22:14.122Z,96147.44
2023-03-17T21:24:42.215Z,96147.44
2023-03-17T21:27:12.043Z,96151.28
2023-03-17T21:29:41.383Z,96153.09
2023-03-17T21:32:09.473Z,96148.84
2023-03-17T21:34:38.113Z,96143.44
2023-03-17T21:37:06.511Z,96146.44
2023-03-17T21:39:34.197Z,96145.22
2023-03-17T21:42:02.176Z,96148.63
2023-03-17T21:44:29.984Z,96140.00
2023-03-17T21:47:02.569Z,96147.81
2023-03-17T21:49:30.431Z,96138.94
2023-03-17T21:51:58.373Z,96139.97
2023-03-17T21:54:26.575Z,96144.16
2023-03-17T21:56:54.209Z,96140.31
2023-03-17T21:59:21.876Z,96138.91
2023-03-17T22:01:52.148Z,96138.13
2023-03-17T22:04:21.604Z,96139.31
2023-03-17T22:06:49.554Z,96145.69
2023-03-17T22:09:19.218Z,96144.09
2023-03-17T22:11:47.055Z,96142.47
2023-03-17T22:14:20.033Z,96148.09
2023-03-17T22:16:48.706Z,96147.91
2023-03-17T22:19:20.606Z,96144.69
2023-03-17T22:21:51.924Z,96147.47
2023-03-17T22:24:19.882Z,96147.03
2023-03-17T22:26:47.769Z,96145.25
2023-03-17T22:29:16.218Z,96149.00
2023-03-17T22:31:44.170Z,96157.25
2023-03-17T22:34:11.988Z,96157.41
2023-03-17T22:36:39.742Z,96157.63
2023-03-17T22:39:10.603Z,96157.97
2023-03-17T22:41:38.789Z,96160.22
2023-03-17T22:44:09.217Z,96171.28
2023-03-17T22:46:37.156Z,96163.00
2023-03-17T22:49:05.131Z,96162.22
2023-03-17T22:51:32.752Z,96169.03
2023-03-17T22:54:00.682Z,96180.47
2023-03-17T22:56:30.237Z,96181.47
2023-03-17T22:58:57.872Z,96190.03
2023-03-17T23:01:25.968Z,96192.00
2023-03-17T23:03:54.920Z,96197.16
2023-03-17T23:06:23.137Z,96196.34
2023-03-17T23:08:50.988Z,96192.66
2023-03-17T23:11:22.213Z,96200.09
2023-03-17T23:13:52.837Z,96196.22
2023-03-17T23:16:22.171Z,96213.41
2023-03-17T23:18:50.809Z,96210.63
2023-03-17T23:21:23.604Z,96209.00
2023-03-17T23:23:51.746Z,96211.00
2023-03-17T23:26:19.541Z,96213.00
2023-03-17T23:28:47.734Z,96216.34
2023-03-17T23:31:19.376Z,96222.34
2023-03-17T23:33:47.694Z,96222.91
2023-03-17T23:36:16.290Z,96225.91
2023-03-17T23:38:45.544Z,96229.09
2023-03-17T23:41:14.589Z,96236.44
2023-03-17T23:43:44.084Z,96234.66
2023-03-17T23:46:13.043Z,96243.25
2023-03-17T23:48:43.075Z,96240.88
2023-03-17T23:51:12.345Z,96239.78
2023-03-17T23:53:40.643Z,96233.78
2023-03-17T23:56:09.375Z,96232.38
2023-03-17T23:58:37.430Z,96234.34
